createdAt,value
2022-08-01T00:00:05.003Z,20.31
2022-08-01T00:02:32.142Z,20.27
2022-08-01T00:04:58.912Z,20.30
2022-08-01T00:07:25.363Z,20.30
2022-08-01T00:09:51.858Z,20.28
2022-08-01T00:12:18.708Z,20.26
2022-08-01T00:14:45.172Z,20.26
2022-08-01T00:17:11.685Z,20.28
2022-08-01T00:19:38.161Z,20.28
2022-08-01T00:22:05.023Z,20.27
2022-08-01T00:24:31.648Z,20.28
2022-08-01T00:26:58.255Z,20.27
2022-08-01T00:30:11.862Z,20.23
2022-08-01T00:32:11.222Z,20.22
2022-08-01T00:34:37.761Z,20.26
2022-08-01T00:37:04.430Z,20.25
2022-08-01T00:39:31.114Z,20.26
2022-08-01T00:41:59.458Z,20.21
2022-08-01T00:44:27.836Z,20.15
2022-08-01T00:46:54.427Z,20.19
2022-08-01T00:49:21.394Z,20.19
2022-08-01T00:51:48.103Z,20.20
2022-08-01T00:54:16.599Z,20.14
2022-08-01T00:56:44.189Z,20.16
2022-08-01T00:59:14.155Z,20.14
2022-08-01T01:01:46.485Z,20.14
2022-08-01T01:04:13.783Z,20.12
2022-08-01T01:07:06.212Z,20.14
2022-08-01T01:10:10.467Z,20.14
2022-08-01T01:13:02.264Z,20.12
2022-08-01T01:15:38.003Z,20.14
2022-08-01T01:18:10.410Z,20.15
2022-08-01T01:20:39.736Z,20.05
2022-08-01T01:23:33.858Z,20.05
2022-08-01T01:26:27.729Z,20.05
2022-08-01T01:29:16.705Z,20.04
2022-08-01T01:31:54.641Z,20.04
2022-08-01T01:34:23.126Z,20.01
2022-08-01T01:36:53.061Z,19.98
2022-08-01T01:39:21.745Z,19.95
2022-08-01T01:41:50.481Z,19.95
2022-08-01T01:44:18.533Z,19.94
2022-08-01T01:46:47.360Z,19.93
2022-08-01T01:49:16.328Z,19.96
2022-08-01T01:51:49.374Z,19.95
2022-08-01T01:54:36.003Z,19.98
2022-08-01T01:57:06.082Z,20.02
2022-08-01T01:59:35.930Z,20.04
2022-08-01T02:02:06.817Z,20.05
2022-08-01T02:04:37.192Z,20.06
2022-08-01T02:07:05.234Z,20.07
2022-08-01T02:09:32.982Z,20.07
2022-08-01T02:12:07.786Z,20.06
2022-08-01T02:14:38.872Z,20.08
2022-08-01T02:17:05.613Z,20.06
2022-08-01T02:19:37.925Z,20.08
2022-08-01T02:22:41.675Z,20.06
2022-08-01T02:25:40.249Z,20.06
2022-08-01T02:28:32.841Z,20.05
2022-08-01T02:31:05.527Z,20.05
2022-08-01T02:33:38.761Z,20.06
2022-08-01T02:36:32.512Z,20.03
2022-08-01T02:38:57.730Z,20.04
2022-08-01T02:41:28.588Z,20.04
2022-08-01T02:44:00.290Z,20.01
2022-08-01T02:46:39.976Z,20.00
2022-08-01T02:49:10.168Z,19.96
2022-08-01T02:51:38.697Z,19.96
2022-08-01T02:54:07.962Z,19.96
2022-08-01T02:56:36.219Z,20.03
2022-08-01T02:59:13.652Z,20.00
2022-08-01T03:01:43.732Z,20.01
2022-08-01T03:04:11.576Z,20.00
2022-08-01T03:06:39.269Z,19.98
2022-08-01T03:09:08.833Z,20.02
2022-08-01T03:11:38.725Z,20.03
2022-08-01T03:14:10.089Z,20.01
2022-08-01T03:16:39.661Z,20.00
2022-08-01T03:19:08.620Z,19.97
2022-08-01T03:21:36.429Z,19.98
2022-08-01T03:24:04.944Z,19.93
2022-08-01T03:26:35.195Z,19.92
2022-08-01T03:29:07.417Z,19.89
2022-08-01T03:31:39.095Z,19.86
2022-08-01T03:34:08.162Z,19.86
2022-08-01T03:36:43.729Z,19.89
2022-08-01T03:39:12.539Z,19.89
2022-08-01T03:41:44.499Z,19.92
2022-08-01T03:44:21.624Z,19.90
2022-08-01T03:46:51.085Z,19.90
2022-08-01T03:49:39.573Z,19.94
2022-08-01T03:52:09.030Z,19.96
2022-08-01T03:54:43.578Z,19.94
2022-08-01T03:57:34.905Z,19.96
2022-08-01T04:00:00.100Z,19.91
2022-08-01T04:02:28.211Z,19.86
2022-08-01T04:04:56.262Z,19.83
2022-08-01T04:07:28.120Z,19.85
2022-08-01T04:09:56.189Z,19.87
2022-08-01T04:12:22.908Z,19.87
2022-08-01T04:14:49.860Z,19.91
2022-08-01T04:17:17.555Z,19.93
2022-08-01T04:19:45.197Z,19.91
2022-08-01T04:22:14.204Z,19.90
2022-08-01T04:24:43.293Z,19.98
2022-08-01T04:27:14.239Z,19.97
2022-08-01T04:29:43.361Z,20.01
2022-08-01T04:32:13.716Z,20.07
2022-08-01T04:34:42.753Z,20.08
2022-08-01T04:37:12.291Z,20.11
2022-08-01T04:39:51.080Z,20.15
2022-08-01T04:42:18.607Z,20.16
2022-08-01T04:44:55.699Z,20.13
2022-08-01T04:47:24.212Z,20.17
2022-08-01T04:49:51.083Z,20.12
2022-08-01T04:52:22.940Z,20.10
2022-08-01T04:54:51.166Z,20.14
2022-08-01T04:57:17.593Z,20.13
2022-08-01T04:59:45.416Z,20.10
2022-08-01T05:02:17.548Z,20.17
2022-08-01T05:04:45.176Z,20.19
2022-08-01T05:07:13.262Z,20.25
2022-08-01T05:09:47.362Z,20.23
2022-08-01T05:12:14.277Z,20.22
2022-08-01T05:14:41.270Z,20.22
2022-08-01T05:17:09.317Z,20.15
2022-08-01T05:19:37.932Z,20.10
2022-08-01T05:22:07.043Z,20.12
2022-08-01T05:24:40.200Z,20.10
2022-08-01T05:27:13.587Z,20.10
2022-08-01T05:29:44.719Z,20.14
2022-08-01T05:32:11.779Z,20.14
2022-08-01T05:34:38.276Z,20.16
2022-08-01T05:37:04.783Z,20.13
2022-08-01T05:39:31.715Z,20.14
2022-08-01T05:41:58.188Z,20.15
2022-08-01T05:44:25.206Z,20.14
2022-08-01T05:46:52.624Z,20.16
2022-08-01T05:49:19.176Z,20.20
2022-08-01T05:51:45.733Z,20.23
2022-08-01T05:54:12.324Z,20.19
2022-08-01T05:56:38.796Z,20.23
2022-08-01T05:59:05.271Z,20.26
2022-08-01T06:01:31.810Z,20.31
2022-08-01T06:03:58.295Z,20.27
2022-08-01T06:06:25.381Z,20.25
2022-08-01T06:08:52.801Z,20.30
2022-08-01T06:11:19.271Z,20.38
2022-08-01T06:13:48.866Z,20.44
2022-08-01T06:16:16.436Z,20.55
2022-08-01T06:18:42.963Z,20.64
2022-08-01T06:21:09.819Z,20.72
2022-08-01T06:23:36.304Z,20.74
2022-08-01T06:26:02.964Z,20.83
2022-08-01T06:28:30.141Z,20.92
2022-08-01T06:30:56.965Z,20.91
2022-08-01T06:33:23.980Z,20.96
2022-08-01T06:35:50.432Z,21.00
2022-08-01T06:38:17.147Z,21.13
2022-08-01T06:40:43.718Z,21.33
2022-08-01T06:43:12.312Z,21.49
2022-08-01T06:45:40.149Z,21.58
2022-08-01T06:48:06.760Z,21.59
2022-08-01T06:50:33.710Z,21.55
2022-08-01T06:53:00.157Z,21.52
2022-08-01T06:55:26.629Z,21.50
2022-08-01T06:57:53.707Z,21.53
2022-08-01T07:00:23.447Z,21.50
2022-08-01T07:02:55.085Z,21.63
2022-08-01T07:05:21.729Z,21.67
2022-08-01T07:07:48.226Z,21.77
2022-08-01T07:10:14.866Z,21.86
2022-08-01T07:12:41.988Z,22.00
2022-08-01T07:15:10.537Z,22.09
2022-08-01T07:17:41.644Z,22.17
2022-08-01T07:20:10.721Z,22.18
2022-08-01T07:22:38.437Z,22.22
2022-08-01T07:25:08.393Z,22.29
2022-08-01T07:27:35.572Z,22.44
2022-08-01T07:30:02.614Z,22.63
2022-08-01T07:32:30.282Z,22.76
2022-08-01T07:34:57.343Z,22.99
2022-08-01T07:37:47.728Z,23.09
2022-08-01T07:40:11.820Z,22.93
2022-08-01T07:42:38.601Z,22.84
2022-08-01T07:45:05.421Z,22.83
2022-08-01T07:47:31.922Z,22.79
2022-08-01T07:50:02.180Z,22.61
2022-08-01T07:52:28.788Z,22.39
2022-08-01T07:54:55.854Z,22.26
2022-08-01T07:57:22.375Z,22.22
2022-08-01T07:59:49.176Z,22.27
2022-08-01T08:02:15.750Z,22.34
2022-08-01T08:04:46.971Z,22.43
2022-08-01T08:07:15.275Z,22.40
2022-08-01T08:09:41.714Z,22.49
2022-08-01T08:12:08.885Z,22.61
2022-08-01T08:14:35.561Z,22.83
2022-08-01T08:17:03.166Z,22.82
2022-08-01T08:19:37.813Z,22.59
2022-08-01T08:22:04.830Z,22.39
2022-08-01T08:24:31.458Z,22.22
2022-08-01T08:26:59.996Z,22.18
2022-08-01T08:29:28.321Z,22.40
2022-08-01T08:31:55.739Z,22.67
2022-08-01T08:34:24.473Z,23.05
2022-08-01T08:36:51.543Z,23.34
2022-08-01T08:39:19.711Z,23.32
2022-08-01T08:41:49.690Z,23.40
2022-08-01T08:44:17.648Z,23.35
2022-08-01T08:46:49.517Z,23.42
2022-08-01T08:49:26.074Z,23.59
2022-08-01T08:51:54.150Z,23.66
2022-08-01T08:54:29.137Z,23.20
2022-08-01T08:57:00.851Z,22.98
2022-08-01T08:59:29.249Z,22.95
2022-08-01T09:01:56.606Z,23.12
2022-08-01T09:04:26.344Z,23.14
2022-08-01T09:06:54.562Z,23.07
2022-08-01T09:09:21.112Z,22.84
2022-08-01T09:11:56.571Z,22.78
2022-08-01T09:14:27.177Z,22.91
2022-08-01T09:17:21.012Z,22.89
2022-08-01T09:19:54.853Z,22.77
2022-08-01T09:22:25.873Z,22.61
2022-08-01T09:25:10.218Z,22.83
2022-08-01T09:27:43.945Z,23.12
2022-08-01T09:30:12.822Z,23.24
2022-08-01T09:33:11.234Z,23.15
2022-08-01T09:35:55.517Z,23.11
2022-08-01T09:38:28.063Z,23.09
2022-08-01T09:40:58.617Z,23.08
2022-08-01T09:43:31.659Z,23.26
2022-08-01T09:45:59.249Z,23.37
2022-08-01T09:48:28.754Z,23.40
2022-08-01T09:51:04.398Z,23.29
2022-08-01T09:53:51.307Z,23.49
2022-08-01T09:56:21.066Z,23.80
2022-08-01T09:58:57.856Z,24.00
2022-08-01T10:01:25.742Z,24.14
2022-08-01T10:04:18.385Z,24.17
2022-08-01T10:06:50.206Z,24.32
2022-08-01T10:09:39.866Z,24.28
2022-08-01T10:12:09.147Z,24.40
2022-08-01T10:14:42.944Z,24.35
2022-08-01T10:17:19.862Z,24.09
2022-08-01T10:19:50.546Z,24.00
2022-08-01T10:22:19.184Z,23.91
2022-08-01T10:24:48.775Z,23.89
2022-08-01T10:27:21.545Z,23.78
2022-08-01T10:30:14.185Z,23.73
2022-08-01T10:32:50.717Z,23.70
2022-08-01T10:35:24.122Z,23.75
2022-08-01T10:38:06.172Z,23.88
2022-08-01T10:40:38.218Z,24.05
2022-08-01T10:43:07.248Z,23.99
2022-08-01T10:45:34.510Z,23.67
2022-08-01T10:48:10.780Z,23.61
2022-08-01T10:50:49.310Z,23.73
2022-08-01T10:53:23.961Z,23.53
2022-08-01T10:55:59.230Z,23.48
2022-08-01T10:58:42.260Z,23.47
2022-08-01T11:01:15.682Z,23.26
2022-08-01T11:04:01.420Z,22.92
2022-08-01T11:06:34.472Z,22.84
2022-08-01T11:09:36.116Z,23.02
2022-08-01T11:12:24.868Z,23.13
2022-08-01T11:15:02.418Z,23.37
2022-08-01T11:17:37.778Z,23.56
2022-08-01T11:20:15.890Z,23.51
2022-08-01T11:23:03.125Z,23.52
2022-08-01T11:26:05.344Z,23.62
2022-08-01T11:28:33.296Z,23.76
2022-08-01T11:31:10.793Z,24.06
2022-08-01T11:33:46.921Z,24.12
2022-08-01T11:36:14.144Z,24.25
2022-08-01T11:38:47.505Z,24.34
2022-08-01T11:41:38.399Z,24.05
2022-08-01T11:44:12.102Z,24.03
2022-08-01T11:47:08.989Z,23.91
2022-08-01T11:49:41.972Z,23.94
2022-08-01T11:52:11.338Z,23.90
2022-08-01T11:54:46.675Z,23.93
2022-08-01T11:57:41.185Z,24.02
2022-08-01T12:00:17.825Z,24.05
2022-08-01T12:02:46.721Z,23.98
2022-08-01T12:05:15.773Z,23.98
2022-08-01T12:07:45.764Z,24.22
2022-08-01T12:10:17.730Z,24.25
2022-08-01T12:12:52.271Z,24.46
2022-08-01T12:15:20.453Z,24.65
2022-08-01T12:17:57.945Z,24.62
2022-08-01T12:20:30.477Z,24.71
2022-08-01T12:23:03.127Z,24.94
2022-08-01T12:25:30.283Z,25.01
2022-08-01T12:28:04.405Z,24.88
2022-08-01T12:30:32.082Z,24.58
2022-08-01T12:32:59.080Z,24.47
2022-08-01T12:35:27.661Z,24.19
2022-08-01T12:37:55.278Z,24.15
2022-08-01T12:40:27.078Z,24.25
2022-08-01T12:42:56.537Z,24.22
2022-08-01T12:45:27.661Z,24.08
2022-08-01T12:47:56.046Z,24.28
2022-08-01T12:50:26.141Z,24.38
2022-08-01T12:52:53.363Z,24.39
2022-08-01T12:55:25.498Z,24.14
2022-08-01T12:58:06.864Z,24.02
2022-08-01T13:00:33.986Z,23.92
2022-08-01T13:03:03.491Z,24.01
2022-08-01T13:05:44.753Z,24.05
2022-08-01T13:08:13.649Z,24.37
2022-08-01T13:10:41.140Z,24.69
2022-08-01T13:13:08.070Z,24.59
2022-08-01T13:15:41.879Z,24.53
2022-08-01T13:18:27.755Z,24.35
2022-08-01T13:21:16.855Z,24.39
2022-08-01T13:24:13.950Z,24.60
2022-08-01T13:26:49.554Z,24.64
2022-08-01T13:29:18.679Z,24.57
2022-08-01T13:31:45.623Z,24.54
2022-08-01T13:34:12.784Z,24.56
2022-08-01T13:36:42.114Z,24.37
2022-08-01T13:39:31.995Z,24.40
2022-08-01T13:41:58.472Z,24.52
2022-08-01T13:44:24.971Z,24.59
2022-08-01T13:46:51.681Z,24.58
2022-08-01T13:49:19.217Z,24.50
2022-08-01T13:51:47.427Z,24.51
2022-08-01T13:54:14.819Z,24.61
2022-08-01T13:56:41.298Z,24.58
2022-08-01T13:59:07.834Z,24.44
2022-08-01T14:01:35.506Z,24.31
2022-08-01T14:04:03.017Z,24.23
2022-08-01T14:06:29.703Z,24.21
2022-08-01T14:08:56.208Z,24.15
2022-08-01T14:11:22.745Z,24.10
2022-08-01T14:13:49.264Z,24.07
2022-08-01T14:16:16.171Z,24.04
2022-08-01T14:18:44.256Z,24.00
2022-08-01T14:21:11.143Z,24.06
2022-08-01T14:23:37.830Z,24.08
2022-08-01T14:26:11.521Z,24.07
2022-08-01T14:28:40.041Z,23.94
2022-08-01T14:31:09.747Z,23.96
2022-08-01T14:33:37.400Z,24.11
2022-08-01T14:36:07.747Z,24.22
2022-08-01T14:38:51.236Z,24.31
2022-08-01T14:41:17.847Z,24.32
2022-08-01T14:43:44.321Z,24.43
2022-08-01T14:46:11.275Z,24.63
2022-08-01T14:48:37.815Z,24.88
2022-08-01T14:51:05.123Z,25.00
2022-08-01T14:53:35.687Z,25.17
2022-08-01T14:56:03.722Z,25.12
2022-08-01T14:58:30.298Z,25.01
2022-08-01T15:00:59.245Z,25.15
2022-08-01T15:03:26.251Z,25.23
2022-08-01T15:05:52.820Z,25.19
2022-08-01T15:08:20.155Z,25.07
2022-08-01T15:10:46.999Z,24.93
2022-08-01T15:13:13.483Z,25.05
2022-08-01T15:15:40.117Z,25.30
2022-08-01T15:18:06.877Z,25.25
2022-08-01T15:20:34.038Z,25.12
2022-08-01T15:23:00.633Z,24.68
2022-08-01T15:25:41.210Z,24.68
2022-08-01T15:28:11.794Z,24.94
2022-08-01T15:30:38.506Z,24.95
2022-08-01T15:33:05.204Z,25.10
2022-08-01T15:35:31.892Z,25.00
2022-08-01T15:37:58.767Z,24.67
2022-08-01T15:40:25.477Z,24.56
2022-08-01T15:42:53.258Z,24.64
2022-08-01T15:45:46.011Z,24.58
2022-08-01T15:48:08.712Z,24.47
2022-08-01T15:50:35.488Z,24.41
2022-08-01T15:53:02.152Z,24.47
2022-08-01T15:55:28.734Z,24.40
2022-08-01T15:57:55.610Z,24.13
2022-08-01T16:00:22.252Z,24.00
2022-08-01T16:02:48.865Z,23.98
2022-08-01T16:05:20.255Z,23.87
2022-08-01T16:07:59.516Z,23.89
2022-08-01T16:10:28.707Z,23.85
2022-08-01T16:12:55.304Z,23.85
2022-08-01T16:15:36.145Z,23.86
2022-08-01T16:18:05.501Z,23.92
2022-08-01T16:20:45.380Z,24.00
2022-08-01T16:23:14.787Z,24.15
2022-08-01T16:25:44.277Z,24.24
2022-08-01T16:28:11.033Z,24.26
2022-08-01T16:30:41.605Z,24.20
2022-08-01T16:33:20.631Z,24.08
2022-08-01T16:36:15.902Z,24.07
2022-08-01T16:38:44.801Z,23.98
2022-08-01T16:41:20.310Z,23.95
2022-08-01T16:43:54.465Z,23.95
2022-08-01T16:46:27.406Z,23.95
2022-08-01T16:48:54.340Z,23.78
2022-08-01T16:51:23.225Z,23.67
2022-08-01T16:53:49.748Z,23.62
2022-08-01T16:56:16.417Z,23.60
2022-08-01T16:58:48.677Z,23.58
2022-08-01T17:01:58.290Z,23.62
2022-08-01T17:04:07.891Z,23.58
2022-08-01T17:06:34.728Z,23.60
2022-08-01T17:09:02.750Z,23.68
2022-08-01T17:11:29.641Z,23.65
2022-08-01T17:13:56.569Z,23.61
2022-08-01T17:16:25.142Z,23.66
2022-08-01T17:18:54.089Z,23.75
2022-08-01T17:21:23.571Z,23.67
2022-08-01T17:23:50.135Z,23.70
2022-08-01T17:26:19.080Z,23.62
2022-08-01T17:28:48.917Z,23.57
2022-08-01T17:31:15.560Z,23.57
2022-08-01T17:33:54.358Z,23.50
2022-08-01T17:36:21.591Z,23.38
2022-08-01T17:38:48.442Z,23.29
2022-08-01T17:41:15.116Z,23.25
2022-08-01T17:43:44.329Z,23.25
2022-08-01T17:46:11.147Z,23.17
2022-08-01T17:48:40.629Z,23.20
2022-08-01T17:51:07.259Z,23.24
2022-08-01T17:53:34.065Z,23.26
2022-08-01T17:56:02.469Z,23.26
2022-08-01T17:58:45.062Z,23.31
2022-08-01T18:01:17.738Z,23.35
2022-08-01T18:03:45.110Z,23.29
2022-08-01T18:06:17.376Z,23.23
2022-08-01T18:08:50.227Z,23.16
2022-08-01T18:11:22.706Z,23.06
2022-08-01T18:13:52.449Z,23.07
2022-08-01T18:16:19.173Z,22.98
2022-08-01T18:18:45.680Z,22.95
2022-08-01T18:21:12.776Z,22.95
2022-08-01T18:23:39.692Z,22.93
2022-08-01T18:26:09.221Z,22.92
2022-08-01T18:28:42.028Z,22.94
2022-08-01T18:31:16.379Z,22.85
2022-08-01T18:33:43.292Z,22.78
2022-08-01T18:36:17.815Z,22.72
2022-08-01T18:38:56.249Z,22.64
2022-08-01T18:41:22.689Z,22.61
2022-08-01T18:43:49.277Z,22.58
2022-08-01T18:46:16.135Z,22.53
2022-08-01T18:48:42.670Z,22.50
2022-08-01T18:51:09.228Z,22.45
2022-08-01T18:53:39.503Z,22.45
2022-08-01T18:56:11.968Z,22.42
2022-08-01T18:58:40.130Z,22.35
2022-08-01T19:01:06.918Z,22.30
2022-08-01T19:03:34.646Z,22.25
2022-08-01T19:06:01.358Z,22.16
2022-08-01T19:08:27.855Z,22.11
2022-08-01T19:10:54.410Z,22.05
2022-08-01T19:13:20.864Z,22.02
2022-08-01T19:15:47.420Z,22.00
2022-08-01T19:18:15.620Z,21.97
2022-08-01T19:20:44.572Z,21.90
2022-08-01T19:23:30.165Z,21.91
2022-08-01T19:25:58.075Z,21.90
2022-08-01T19:28:26.777Z,21.83
2022-08-01T19:30:55.553Z,21.81
2022-08-01T19:33:22.379Z,21.78
2022-08-01T19:35:52.631Z,21.71
2022-08-01T19:38:22.302Z,21.66
2022-08-01T19:40:49.284Z,21.61
2022-08-01T19:43:17.694Z,21.55
2022-08-01T19:45:44.811Z,21.51
2022-08-01T19:48:14.900Z,21.53
2022-08-01T19:50:43.808Z,21.52
2022-08-01T19:53:12.109Z,21.48
2022-08-01T19:55:43.432Z,21.44
2022-08-01T19:58:28.148Z,21.36
2022-08-01T20:00:57.525Z,21.34
2022-08-01T20:03:24.926Z,21.32
2022-08-01T20:05:51.896Z,21.32
2022-08-01T20:08:20.780Z,21.30
2022-08-01T20:10:48.499Z,21.23
2022-08-01T20:13:16.070Z,21.20
2022-08-01T20:15:44.907Z,21.16
2022-08-01T20:18:20.426Z,21.11
2022-08-01T20:20:51.804Z,21.09
2022-08-01T20:23:23.546Z,21.11
2022-08-01T20:26:00.334Z,21.05
2022-08-01T20:28:29.044Z,21.02
2022-08-01T20:31:05.297Z,20.94
2022-08-01T20:33:39.959Z,20.91
2022-08-01T20:36:12.000Z,20.82
2022-08-01T20:38:56.642Z,20.75
2022-08-01T20:41:24.826Z,20.73
2022-08-01T20:43:59.506Z,20.66
2022-08-01T20:46:28.389Z,20.60
2022-08-01T20:48:57.745Z,20.54
2022-08-01T20:51:28.746Z,20.50
2022-08-01T20:53:56.081Z,20.51
2022-08-01T20:56:54.319Z,20.43
2022-08-01T20:59:54.938Z,20.35
2022-08-01T21:02:41.485Z,20.28
2022-08-01T21:05:12.623Z,20.30
2022-08-01T21:08:02.317Z,20.32
2022-08-01T21:10:33.752Z,20.31
2022-08-01T21:13:11.297Z,20.34
2022-08-01T21:16:07.420Z,20.34
2022-08-01T21:18:39.433Z,20.23
2022-08-01T21:21:14.577Z,20.06
2022-08-01T21:24:06.961Z,19.95
2022-08-01T21:26:46.087Z,19.86
2022-08-01T21:29:13.088Z,19.89
2022-08-01T21:31:41.426Z,19.90
2022-08-01T21:34:09.174Z,19.84
2022-08-01T21:36:43.637Z,19.79
2022-08-01T21:39:10.465Z,19.64
2022-08-01T21:42:03.294Z,19.62
2022-08-01T21:44:28.687Z,19.58
2022-08-01T21:46:59.869Z,19.52
2022-08-01T21:49:27.509Z,19.55
2022-08-01T21:52:00.074Z,19.67
2022-08-01T21:54:49.442Z,19.71
2022-08-01T21:57:54.946Z,19.65
2022-08-01T22:00:25.608Z,19.64
2022-08-01T22:03:01.929Z,19.64
2022-08-01T22:05:49.744Z,19.66
2022-08-01T22:08:24.368Z,19.65
2022-08-01T22:10:58.906Z,19.63
2022-08-01T22:13:25.650Z,19.66
2022-08-01T22:15:55.811Z,19.61
2022-08-01T22:18:23.150Z,19.61
2022-08-01T22:20:51.587Z,19.62
2022-08-01T22:23:22.054Z,19.53
2022-08-01T22:25:53.358Z,19.52
2022-08-01T22:28:20.549Z,19.49
2022-08-01T22:30:49.711Z,19.47
2022-08-01T22:33:17.867Z,19.45
2022-08-01T22:35:46.761Z,19.47
2022-08-01T22:38:14.071Z,19.42
2022-08-01T22:40:48.136Z,19.40
2022-08-01T22:43:24.132Z,19.32
2022-08-01T22:46:16.466Z,19.27
2022-08-01T22:48:51.532Z,19.25
2022-08-01T22:51:56.956Z,19.20
2022-08-01T22:54:33.905Z,19.18
2022-08-01T22:57:07.143Z,19.12
2022-08-01T22:59:42.395Z,19.07
2022-08-01T23:02:14.108Z,19.02
2022-08-01T23:04:49.438Z,18.97
2022-08-01T23:07:22.780Z,18.92
2022-08-01T23:09:54.673Z,18.92
2022-08-01T23:12:23.684Z,18.95
2022-08-01T23:14:52.982Z,18.92
2022-08-01T23:17:26.725Z,18.89
2022-08-01T23:19:58.665Z,18.80
2022-08-01T23:22:30.146Z,18.77
2022-08-01T23:25:04.257Z,18.74
2022-08-01T23:27:51.339Z,18.71
2022-08-01T23:30:29.512Z,18.69
2022-08-01T23:32:56.717Z,18.65
2022-08-01T23:35:24.282Z,18.63
2022-08-01T23:37:51.551Z,18.57
2022-08-01T23:40:19.089Z,18.50
2022-08-01T23:42:45.859Z,18.45
2022-08-01T23:45:12.434Z,18.39
2022-08-01T23:47:38.998Z,18.35
2022-08-01T23:50:07.693Z,18.32
2022-08-01T23:52:34.614Z,18.30
2022-08-01T23:55:14.969Z,18.25
2022-08-01T23:57:42.730Z,18.23
